Time;durP1;ratioP1;P1;durP2;ratioP2;P2;SDS_P1;SDS_P2;PMS_P1;PMS_P2;Temp;Humidity;BMP_temperature;BMP_pressure;BME280_temperature;BME280_humidity;BME280_pressure;Samples;Min_cycle;Max_cycle;Signal;HPM_P1;HPM_P2
2023/04/12 00:01:29;;;;;;;7.35;2.42;;;8.30;74.20;;;;;;5091839;28;20020;-75
2023/04/12 00:03:54;;;;;;;6.40;1.90;;;8.30;74.20;;;;;;5091394;28;20035;-75
2023/04/12 00:06:26;;;;;;;5.07;1.90;;;8.30;75.90;;;;;;5091727;28;20415;-75
2023/04/12 00:08:52;;;;;;;8.93;3.20;;;8.30;74.80;;;;;;5091774;28;20123;-74
2023/04/12 00:11:17;;;;;;;8.82;3.00;;;8.30;75.00;;;;;;5091719;28;20106;-74
2023/04/12 00:13:43;;;;;;;4.47;1.70;;;8.40;75.10;;;;;;5091567;28;20024;-74
2023/04/12 00:16:08;;;;;;;5.35;2.08;;;8.50;74.80;;;;;;5092141;28;20016;-74
2023/04/12 00:18:34;;;;;;;6.75;2.60;;;8.50;75.10;;;;;;5091478;28;20032;-74
2023/04/12 00:21:00;;;;;;;6.57;2.08;;;8.50;75.40;;;;;;5091598;28;20031;-74
2023/04/12 00:23:25;;;;;;;7.53;2.83;;;8.60;75.20;;;;;;5091636;28;20020;-74
2023/04/12 00:25:51;;;;;;;8.70;2.20;;;8.60;75.20;;;;;;5091527;28;20031;-74
2023/04/12 00:28:16;;;;;;;5.70;2.38;;;8.60;75.30;;;;;;5091090;28;20028;-74
2023/04/12 00:30:42;;;;;;;6.75;2.65;;;8.60;76.10;;;;;;5091728;28;20460;-74
2023/04/12 00:33:09;;;;;;;7.40;2.13;;;8.50;76.20;;;;;;5091746;28;20050;-74
2023/04/12 00:35:35;;;;;;;4.35;1.92;;;8.40;76.60;;;;;;5091348;28;20044;-74
2023/04/12 00:38:05;;;;;;;7.43;2.35;;;8.40;75.70;;;;;;5074126;28;20438;-73
2023/04/12 00:40:30;;;;;;;6.15;2.00;;;8.20;77.10;;;;;;5091526;28;20075;-74
2023/04/12 00:42:56;;;;;;;4.88;1.60;;;8.30;77.50;;;;;;5091073;28;20495;-73
2023/04/12 00:45:21;;;;;;;3.15;1.80;;;8.20;77.50;;;;;;5091732;28;20103;-74
2023/04/12 00:47:47;;;;;;;4.22;1.65;;;8.10;78.80;;;;;;5091608;28;20043;-74
2023/04/12 00:50:13;;;;;;;2.08;1.10;;;8.00;78.90;;;;;;5092873;28;20028;-74
2023/04/12 00:52:39;;;;;;;3.85;1.55;;;8.00;78.60;;;;;;5078220;28;20039;-74
2023/04/12 00:55:06;;;;;;;4.25;1.10;;;7.90;78.10;;;;;;5095433;28;20020;-74
2023/04/12 00:57:37;;;;;;;1.95;0.90;;;7.90;77.60;;;;;;5094840;28;20137;-74
2023/04/12 01:00:11;;;;;;;2.03;0.82;;;8.00;77.70;;;;;;5094997;28;20035;-74
2023/04/12 01:02:37;;;;;;;2.47;1.00;;;7.90;77.10;;;;;;5095181;28;20021;-74
2023/04/12 01:05:04;;;;;;;3.33;1.20;;;7.90;77.50;;;;;;5095055;28;20063;-75
2023/04/12 01:08:03;;;;;;;1.77;0.98;;;7.90;77.20;;;;;;5094921;28;20479;-74
2023/04/12 01:10:48;;;;;;;1.55;0.77;;;7.90;77.20;;;;;;5094862;28;20047;-74
2023/04/12 01:13:19;;;;;;;2.38;1.00;;;8.00;77.80;;;;;;5094524;28;20035;-73
2023/04/12 01:16:00;;;;;;;4.53;1.27;;;8.00;77.70;;;;;;5096216;28;20047;-73
2023/04/12 01:18:29;;;;;;;2.05;1.00;;;8.00;78.10;;;;;;5094356;28;20024;-74
2023/04/12 01:21:08;;;;;;;1.20;0.80;;;8.00;76.30;;;;;;5094865;28;20111;-74
2023/04/12 01:23:55;;;;;;;1.25;0.90;;;8.10;76.70;;;;;;5094565;28;20020;-74
2023/04/12 01:27:00;;;;;;;1.55;0.88;;;8.20;77.20;;;;;;5094532;28;20525;-74
2023/04/12 01:29:27;;;;;;;1.00;0.70;;;8.20;77.30;;;;;;5036379;28;20029;-74
2023/04/12 01:32:01;;;;;;;1.95;1.05;;;8.20;77.10;;;;;;5083996;28;20484;-74
2023/04/12 01:34:33;;;;;;;3.13;0.77;;;8.20;76.90;;;;;;5094226;28;20048;-74
2023/04/12 01:37:01;;;;;;;1.27;0.85;;;8.20;76.70;;;;;;5094347;28;20491;-74
2023/04/12 01:39:32;;;;;;;1.67;0.82;;;8.30;76.90;;;;;;5095377;28;20493;-74
2023/04/12 01:41:57;;;;;;;2.63;0.88;;;8.30;76.30;;;;;;5094056;28;20020;-74
2023/04/12 01:44:24;;;;;;;2.60;1.13;;;8.30;76.40;;;;;;5094333;28;20050;-74
2023/04/12 01:46:51;;;;;;;1.75;1.00;;;8.30;76.60;;;;;;5095506;28;20042;-74
2023/04/12 01:49:18;;;;;;;1.38;0.90;;;8.30;77.30;;;;;;5098417;28;20379;-75
2023/04/12 01:51:56;;;;;;;2.78;1.10;;;8.30;77.20;;;;;;5079572;28;20403;-75
2023/04/12 01:54:41;;;;;;;6.18;1.27;;;8.30;75.30;;;;;;5094335;28;20020;-74
2023/04/12 01:57:08;;;;;;;4.00;0.90;;;8.20;75.40;;;;;;5093764;28;20077;-73
2023/04/12 01:59:39;;;;;;;3.75;1.20;;;8.10;75.80;;;;;;5093844;28;20126;-74
2023/04/12 02:02:06;;;;;;;3.10;1.20;;;8.10;76.00;;;;;;5093225;28;20020;-74
2023/04/12 02:04:34;;;;;;;3.08;1.10;;;8.10;76.00;;;;;;5094247;28;20031;-74
2023/04/12 02:07:00;;;;;;;4.03;1.42;;;8.10;76.00;;;;;;5093628;28;20032;-74
2023/04/12 02:09:26;;;;;;;2.28;1.15;;;8.10;75.30;;;;;;5077349;28;20115;-74
2023/04/12 02:11:51;;;;;;;1.05;0.77;;;8.20;75.90;;;;;;5093819;28;20039;-74
2023/04/12 02:14:18;;;;;;;3.72;1.13;;;8.30;76.20;;;;;;5076411;28;20032;-74
2023/04/12 02:16:45;;;;;;;1.75;0.77;;;8.30;76.50;;;;;;5093692;28;20154;-74
2023/04/12 02:19:11;;;;;;;1.92;0.90;;;8.30;77.50;;;;;;5093630;28;20024;-73
2023/04/12 02:21:44;;;;;;;3.25;1.10;;;8.40;78.10;;;;;;5093639;28;20025;-74
2023/04/12 02:24:12;;;;;;;2.22;0.90;;;8.40;77.30;;;;;;5093212;28;20032;-73
2023/04/12 02:26:38;;;;;;;3.60;0.90;;;8.40;77.40;;;;;;5076107;28;20524;-74
2023/04/12 02:29:07;;;;;;;1.60;0.90;;;8.40;77.10;;;;;;5092865;28;20020;-73
2023/04/12 02:31:34;;;;;;;1.38;0.77;;;8.50;77.30;;;;;;5093443;28;20028;-74
2023/04/12 02:34:00;;;;;;;1.30;0.88;;;8.40;77.60;;;;;;5093163;28;20023;-73
2023/04/12 02:36:25;;;;;;;1.77;0.95;;;8.40;77.50;;;;;;5093258;28;20024;-73
2023/04/12 02:38:51;;;;;;;1.75;0.98;;;8.40;77.20;;;;;;5075727;28;20039;-74
2023/04/12 02:41:18;;;;;;;1.55;0.90;;;8.30;77.20;;;;;;5092966;28;20020;-74
2023/04/12 02:43:43;;;;;;;3.78;1.08;;;8.30;77.70;;;;;;5093250;28;20460;-75
2023/04/12 02:46:09;;;;;;;4.28;1.17;;;8.20;78.00;;;;;;5093260;28;20036;-73
2023/04/12 02:48:35;;;;;;;7.35;1.88;;;8.20;78.20;;;;;;5094025;28;20475;-73
2023/04/12 02:51:02;;;;;;;3.22;1.40;;;8.10;78.60;;;;;;5093041;28;20128;-75
2023/04/12 02:53:28;;;;;;;3.60;1.00;;;8.10;79.10;;;;;;5092727;28;20106;-75
2023/04/12 02:55:53;;;;;;;3.58;1.20;;;8.10;80.00;;;;;;5092377;28;20117;-75
2023/04/12 02:58:19;;;;;;;2.35;1.10;;;8.00;79.90;;;;;;5093619;28;20056;-74
2023/04/12 03:00:45;;;;;;;5.05;1.02;;;8.00;79.90;;;;;;5092701;28;20028;-74
2023/04/12 03:03:11;;;;;;;3.85;1.27;;;8.00;80.10;;;;;;5092614;28;20028;-74
2023/04/12 03:05:36;;;;;;;2.92;1.33;;;8.10;80.70;;;;;;5092089;28;20058;-74
2023/04/12 03:08:02;;;;;;;2.28;1.27;;;8.10;80.90;;;;;;5092173;28;20028;-74
2023/04/12 03:10:28;;;;;;;3.08;1.20;;;8.10;80.80;;;;;;5092011;28;20503;-74
2023/04/12 03:12:53;;;;;;;3.10;1.40;;;8.10;81.30;;;;;;5091585;28;20020;-74
2023/04/12 03:15:22;;;;;;;3.75;1.08;;;8.00;80.80;;;;;;5092285;28;20039;-74
2023/04/12 03:17:47;;;;;;;4.75;1.17;;;7.90;80.90;;;;;;5092204;28;20023;-74
2023/04/12 03:20:16;;;;;;;1.20;1.00;;;7.90;81.30;;;;;;5092119;28;20024;-74
2023/04/12 03:22:41;;;;;;;5.32;1.45;;;7.90;81.40;;;;;;5092449;28;20047;-74
2023/04/12 03:25:08;;;;;;;2.25;1.33;;;7.90;81.60;;;;;;5092596;28;20462;-73
2023/04/12 03:27:34;;;;;;;2.30;1.40;;;7.80;81.60;;;;;;5091976;28;20032;-74
2023/04/12 03:30:00;;;;;;;5.30;1.25;;;7.80;82.30;;;;;;5092249;28;20020;-73
2023/04/12 03:32:27;;;;;;;2.22;1.23;;;7.70;82.50;;;;;;5092152;28;20028;-74
2023/04/12 03:34:52;;;;;;;4.43;1.40;;;7.70;82.50;;;;;;5092214;28;20074;-74
2023/04/12 03:37:18;;;;;;;4.75;1.38;;;7.70;82.60;;;;;;5091664;28;20028;-74
2023/04/12 03:39:46;;;;;;;3.60;1.60;;;7.60;82.50;;;;;;5091856;28;20016;-74
2023/04/12 03:42:13;;;;;;;4.70;1.55;;;7.60;82.30;;;;;;5092204;28;20024;-73
2023/04/12 03:44:38;;;;;;;4.68;1.45;;;7.60;82.70;;;;;;5075265;28;20387;-74
2023/04/12 03:47:04;;;;;;;3.58;1.58;;;7.60;83.10;;;;;;5092020;28;20043;-76
2023/04/12 03:49:30;;;;;;;3.65;1.80;;;7.60;83.70;;;;;;5091641;28;20058;-74
2023/04/12 03:51:56;;;;;;;3.22;1.65;;;7.50;84.00;;;;;;5091916;28;20433;-76
2023/04/12 03:54:21;;;;;;;2.72;1.58;;;7.50;84.30;;;;;;5074786;28;20024;-74
2023/04/12 03:56:47;;;;;;;4.50;1.95;;;7.40;84.40;;;;;;5091882;28;20036;-74
2023/04/12 03:59:13;;;;;;;2.45;1.33;;;7.50;84.80;;;;;;5075095;28;20077;-75
2023/04/12 04:01:40;;;;;;;2.80;1.90;;;7.40;84.70;;;;;;5092106;28;20107;-74
2023/04/12 04:04:06;;;;;;;3.58;1.55;;;7.40;84.70;;;;;;5091809;28;20107;-76
2023/04/12 04:06:33;;;;;;;2.92;1.67;;;7.40;84.50;;;;;;5091496;28;20115;-76
2023/04/12 04:08:59;;;;;;;3.03;1.75;;;7.50;84.70;;;;;;5092676;28;20028;-76
2023/04/12 04:11:25;;;;;;;3.67;1.80;;;7.50;85.00;;;;;;5091312;28;20024;-76
2023/04/12 04:13:51;;;;;;;3.25;1.73;;;7.40;84.60;;;;;;5091701;28;20468;-77
2023/04/12 04:16:17;;;;;;;1.95;1.38;;;7.50;85.30;;;;;;5091615;28;20036;-76
2023/04/12 04:18:42;;;;;;;4.40;1.63;;;7.50;84.90;;;;;;5091714;28;20444;-77
2023/04/12 04:21:08;;;;;;;2.78;1.35;;;7.40;84.90;;;;;;5091398;28;20398;-76
2023/04/12 04:23:38;;;;;;;4.05;1.83;;;7.40;83.80;;;;;;5089366;28;20027;-79
2023/04/12 04:26:05;;;;;;;7.18;1.60;;;7.50;84.20;;;;;;5075018;28;20032;-78
2023/04/12 04:28:32;;;;;;;3.55;1.27;;;7.40;84.40;;;;;;5075454;28;20487;-78
2023/04/12 04:31:04;;;;;;;3.05;1.48;;;7.50;84.70;;;;;;5075048;28;20468;-78
2023/04/12 04:33:30;;;;;;;2.70;1.50;;;7.50;84.20;;;;;;5075543;28;20432;-78
2023/04/12 04:35:55;;;;;;;2.05;1.10;;;7.60;84.20;;;;;;5075356;28;20055;-79
2023/04/12 04:38:24;;;;;;;4.00;1.50;;;7.60;83.60;;;;;;5074959;28;20443;-75
2023/04/12 04:40:52;;;;;;;3.28;1.23;;;7.60;83.20;;;;;;5075110;28;20020;-76
2023/04/12 04:43:19;;;;;;;1.48;1.20;;;7.60;83.90;;;;;;5075331;28;20503;-77
2023/04/12 04:45:48;;;;;;;3.92;1.35;;;7.60;84.20;;;;;;5074969;28;20025;-78
2023/04/12 04:48:14;;;;;;;2.60;1.10;;;7.60;83.90;;;;;;5075126;28;20093;-78
2023/04/12 04:50:39;;;;;;;2.47;1.40;;;7.70;84.00;;;;;;5058260;28;20078;-78
2023/04/12 04:53:05;;;;;;;2.83;1.15;;;7.70;84.00;;;;;;5075071;28;20029;-77
2023/04/12 04:55:30;;;;;;;2.65;1.33;;;7.70;84.10;;;;;;5074751;28;20085;-77
2023/04/12 04:57:56;;;;;;;3.05;1.80;;;7.80;83.80;;;;;;5074940;28;20016;-78
2023/04/12 05:00:24;;;;;;;3.75;1.50;;;7.80;83.50;;;;;;5058430;28;20056;-77
2023/04/12 05:02:50;;;;;;;2.30;1.50;;;7.80;83.60;;;;;;5074667;28;20070;-77
2023/04/12 05:05:16;;;;;;;3.47;1.20;;;7.90;83.80;;;;;;5074392;28;20032;-76
2023/04/12 05:07:42;;;;;;;3.78;1.60;;;7.90;83.50;;;;;;5074616;28;20464;-76
2023/04/12 05:10:09;;;;;;;2.60;1.38;;;7.90;83.20;;;;;;5073842;28;20020;-76
2023/04/12 05:12:35;;;;;;;4.53;1.50;;;8.00;83.40;;;;;;5074348;28;20028;-79
2023/04/12 05:15:02;;;;;;;2.75;1.67;;;8.00;83.50;;;;;;5068737;28;20024;-79
2023/04/12 05:17:28;;;;;;;3.35;1.17;;;8.00;82.40;;;;;;5073627;28;20429;-76
2023/04/12 05:19:54;;;;;;;3.00;1.52;;;8.10;82.30;;;;;;5075371;28;20029;-76
2023/04/12 05:22:20;;;;;;;2.28;1.20;;;8.10;82.30;;;;;;5058010;28;20021;-75
2023/04/12 05:24:49;;;;;;;2.45;1.35;;;8.10;82.40;;;;;;5078573;28;20028;-75
2023/04/12 05:27:18;;;;;;;4.95;2.00;;;8.20;82.20;;;;;;5074259;28;20480;-75
2023/04/12 05:29:44;;;;;;;4.00;1.42;;;8.20;82.40;;;;;;5057972;28;20503;-76
2023/04/12 05:32:10;;;;;;;4.82;1.30;;;8.30;82.20;;;;;;5074248;28;20056;-76
2023/04/12 05:34:36;;;;;;;3.03;1.52;;;8.30;81.40;;;;;;5073646;28;20076;-78
2023/04/12 05:37:03;;;;;;;4.70;1.65;;;8.30;81.50;;;;;;5073307;28;20617;-74
2023/04/12 05:39:29;;;;;;;4.05;1.20;;;8.30;81.70;;;;;;5073591;28;20024;-78
2023/04/12 05:41:55;;;;;;;2.50;1.20;;;8.30;80.80;;;;;;5073898;28;20021;-76
2023/04/12 05:44:21;;;;;;;3.08;1.52;;;8.30;81.40;;;;;;5073852;28;20561;-75
2023/04/12 05:46:46;;;;;;;6.40;1.60;;;8.30;81.90;;;;;;5073367;28;20431;-76
2023/04/12 05:49:12;;;;;;;3.55;1.83;;;8.30;81.70;;;;;;5057145;28;20115;-76
2023/04/12 05:51:37;;;;;;;4.47;1.50;;;8.30;82.20;;;;;;5073897;28;20031;-76
2023/04/12 05:54:05;;;;;;;4.03;1.40;;;8.30;81.50;;;;;;5056775;28;20082;-75
2023/04/12 05:56:31;;;;;;;3.42;1.42;;;8.30;81.50;;;;;;5073292;28;20480;-75
2023/04/12 05:58:57;;;;;;;3.88;1.40;;;8.20;82.00;;;;;;5073469;28;20078;-75
2023/04/12 06:01:30;;;;;;;4.30;1.70;;;8.30;82.10;;;;;;5073145;28;20485;-78
2023/04/12 06:03:56;;;;;;;5.53;1.83;;;8.30;82.20;;;;;;5073963;28;20370;-77
2023/04/12 06:06:22;;;;;;;4.78;1.80;;;8.40;81.00;;;;;;5073898;28;20107;-75
2023/04/12 06:08:48;;;;;;;5.15;1.50;;;8.30;81.40;;;;;;5073456;28;20020;-75
2023/04/12 06:11:15;;;;;;;5.47;1.63;;;8.30;81.10;;;;;;5074109;28;20033;-79
2023/04/12 06:13:40;;;;;;;5.57;2.03;;;8.40;81.70;;;;;;5073676;28;20056;-77
2023/04/12 06:16:06;;;;;;;5.13;1.77;;;8.30;82.40;;;;;;5074609;28;20027;-77
2023/04/12 06:18:32;;;;;;;2.78;1.40;;;8.30;82.80;;;;;;5063752;28;20028;-77
2023/04/12 06:20:59;;;;;;;2.60;1.75;;;8.30;82.40;;;;;;5083713;28;20021;-79
2023/04/12 06:23:26;;;;;;;3.85;1.40;;;8.30;83.10;;;;;;5073728;28;20116;-75
2023/04/12 06:25:52;;;;;;;7.40;1.75;;;8.30;82.70;;;;;;5073818;28;20074;-77
2023/04/12 06:28:17;;;;;;;2.65;1.60;;;8.30;81.90;;;;;;5073129;28;20031;-77
2023/04/12 06:30:43;;;;;;;5.93;1.67;;;8.30;82.70;;;;;;5073324;28;20116;-76
2023/04/12 06:33:10;;;;;;;4.35;1.80;;;8.30;81.40;;;;;;5073857;28;20088;-76
2023/04/12 06:35:35;;;;;;;3.17;1.38;;;8.40;80.70;;;;;;5058271;28;20362;-75
2023/04/12 06:38:01;;;;;;;2.38;1.17;;;8.50;80.50;;;;;;5076877;28;20036;-77
2023/04/12 06:40:29;;;;;;;3.10;1.25;;;8.50;80.70;;;;;;5086064;28;20028;-76
2023/04/12 06:42:55;;;;;;;4.22;1.90;;;8.60;81.60;;;;;;5086767;28;20088;-76
2023/04/12 06:45:21;;;;;;;3.30;1.90;;;8.50;82.40;;;;;;5087678;28;20028;-75
2023/04/12 06:47:47;;;;;;;2.78;1.60;;;8.50;82.50;;;;;;5086739;28;20044;-75
2023/04/12 06:50:13;;;;;;;2.35;1.67;;;8.50;82.30;;;;;;5085402;28;20501;-76
2023/04/12 06:52:38;;;;;;;3.20;1.70;;;8.60;82.40;;;;;;5081687;28;20028;-76
2023/04/12 06:55:05;;;;;;;3.03;1.90;;;8.70;81.50;;;;;;5074776;28;20380;-76
2023/04/12 06:57:30;;;;;;;3.38;1.75;;;8.60;81.70;;;;;;5073592;28;20113;-75
2023/04/12 06:59:56;;;;;;;2.50;1.42;;;8.80;82.00;;;;;;5074889;28;20024;-76
2023/04/12 07:02:21;;;;;;;3.47;1.50;;;8.80;81.80;;;;;;5074047;28;20028;-79
2023/04/12 07:04:52;;;;;;;3.60;1.35;;;8.80;81.30;;;;;;5073636;28;20027;-78
2023/04/12 07:07:19;;;;;;;5.05;1.35;;;8.90;81.40;;;;;;5073702;28;20032;-76
2023/04/12 07:09:46;;;;;;;2.20;1.63;;;8.90;81.30;;;;;;5073132;28;20052;-78
2023/04/12 07:12:12;;;;;;;5.35;1.42;;;8.90;81.50;;;;;;5072272;28;20059;-80
2023/04/12 07:14:39;;;;;;;4.25;2.08;;;9.00;81.60;;;;;;5072699;28;20074;-79
2023/04/12 07:17:05;;;;;;;4.35;1.75;;;8.90;81.20;;;;;;5072892;28;20028;-80
2023/04/12 07:19:32;;;;;;;2.10;1.40;;;9.00;81.40;;;;;;5055584;28;20464;-80
2023/04/12 07:21:57;;;;;;;1.83;1.65;;;9.10;80.90;;;;;;5072591;28;20055;-80
2023/04/12 07:24:24;;;;;;;2.00;1.27;;;9.20;80.70;;;;;;5072915;28;20476;-79
2023/04/12 07:26:53;;;;;;;3.90;1.50;;;9.30;80.50;;;;;;5072044;28;20541;-80
2023/04/12 07:29:19;;;;;;;1.10;1.00;;;9.40;80.60;;;;;;5071625;28;20040;-77
2023/04/12 07:31:45;;;;;;;1.92;1.48;;;9.50;80.30;;;;;;5072222;28;20025;-77
2023/04/12 07:34:12;;;;;;;2.05;1.33;;;9.50;79.70;;;;;;5071578;28;20023;-76
2023/04/12 07:36:37;;;;;;;1.90;1.45;;;9.60;79.00;;;;;;5072061;28;20051;-78
2023/04/12 07:39:04;;;;;;;2.92;1.40;;;9.60;79.30;;;;;;5071811;28;20557;-79
2023/04/12 07:41:29;;;;;;;3.45;1.13;;;9.70;79.10;;;;;;5073072;28;20028;-79
2023/04/12 07:43:55;;;;;;;2.55;1.40;;;9.80;78.30;;;;;;5071794;28;20116;-79
2023/04/12 07:46:21;;;;;;;9.65;2.10;;;9.90;78.90;;;;;;5072163;28;20082;-82
2023/04/12 07:48:46;;;;;;;3.90;1.48;;;10.10;79.10;;;;;;5071846;28;20025;-73
2023/04/12 07:51:12;;;;;;;2.75;1.40;;;10.50;77.60;;;;;;5072889;28;20036;-77
2023/04/12 07:53:40;;;;;;;1.48;1.17;;;10.80;74.70;;;;;;5071201;28;20028;-79
2023/04/12 07:56:07;;;;;;;2.05;1.23;;;11.10;74.80;;;;;;5071572;28;20021;-79
2023/04/12 07:58:33;;;;;;;2.35;1.30;;;11.10;73.10;;;;;;5071876;28;20094;-78
2023/04/12 08:01:00;;;;;;;2.95;1.30;;;11.20;73.30;;;;;;5071071;28;20021;-77
2023/04/12 08:03:26;;;;;;;2.08;1.27;;;11.30;73.00;;;;;;5071575;28;20074;-77
2023/04/12 08:05:53;;;;;;;3.75;1.35;;;11.20;72.90;;;;;;5071496;28;20423;-77
2023/04/12 08:08:20;;;;;;;3.28;1.55;;;11.30;72.80;;;;;;5071382;28;20024;-76
2023/04/12 08:10:46;;;;;;;4.68;1.67;;;11.30;72.00;;;;;;5071256;28;20021;-76
2023/04/12 08:13:13;;;;;;;3.35;1.60;;;11.30;69.20;;;;;;5071424;28;20028;-77
2023/04/12 08:15:42;;;;;;;3.08;1.35;;;11.30;69.20;;;;;;5071619;28;20021;-77
2023/04/12 08:18:08;;;;;;;3.75;1.33;;;11.30;67.70;;;;;;5071369;28;20035;-77
2023/04/12 08:20:34;;;;;;;4.15;1.20;;;11.40;65.80;;;;;;5071385;28;20119;-75
2023/04/12 08:23:00;;;;;;;4.22;1.60;;;11.40;65.60;;;;;;5071509;28;20129;-76
2023/04/12 08:25:25;;;;;;;3.50;1.30;;;11.30;65.00;;;;;;5071052;28;20119;-76
2023/04/12 08:27:51;;;;;;;5.43;1.73;;;11.30;65.40;;;;;;5071241;28;20485;-81
2023/04/12 08:30:17;;;;;;;4.47;1.45;;;11.40;64.70;;;;;;5071271;28;20464;-77
2023/04/12 08:32:43;;;;;;;5.55;1.48;;;11.40;63.70;;;;;;5071023;28;20047;-77
2023/04/12 08:35:08;;;;;;;4.55;1.48;;;11.50;62.50;;;;;;5070940;28;20044;-77
2023/04/12 08:37:34;;;;;;;7.28;1.85;;;11.60;63.60;;;;;;5072421;28;20024;-77
2023/04/12 08:40:07;;;;;;;4.75;1.30;;;11.70;63.60;;;;;;5071405;28;20116;-78
2023/04/12 08:42:35;;;;;;;2.63;1.35;;;11.80;61.90;;;;;;5054781;28;20563;-77
2023/04/12 08:45:05;;;;;;;5.03;1.23;;;12.10;63.00;;;;;;5071331;28;20117;-77
2023/04/12 08:47:36;;;;;;;3.38;1.25;;;12.20;62.00;;;;;;5071126;28;20039;-77
2023/04/12 08:50:04;;;;;;;5.40;1.73;;;12.30;58.80;;;;;;5054800;28;20032;-77
2023/04/12 08:52:33;;;;;;;2.92;1.25;;;12.20;59.70;;;;;;5071068;28;20182;-75
2023/04/12 08:55:05;;;;;;;7.10;1.13;;;12.10;58.30;;;;;;5071134;28;20021;-76
2023/04/12 08:57:34;;;;;;;3.30;1.38;;;12.10;58.30;;;;;;5070937;28;20020;-76
2023/04/12 09:00:02;;;;;;;4.55;1.40;;;11.90;59.60;;;;;;5072077;28;20102;-77
2023/04/12 09:02:28;;;;;;;4.43;1.63;;;11.90;61.30;;;;;;5071272;28;20087;-77
2023/04/12 09:04:54;;;;;;;2.75;1.00;;;11.90;61.80;;;;;;5075069;28;20399;-76
2023/04/12 09:07:26;;;;;;;3.75;1.25;;;11.90;62.10;;;;;;5071185;28;20043;-77
2023/04/12 09:09:52;;;;;;;5.88;1.25;;;12.00;61.70;;;;;;5071048;28;20541;-78
2023/04/12 09:12:21;;;;;;;6.00;1.48;;;12.10;62.20;;;;;;5072614;28;20029;-78
2023/04/12 09:14:46;;;;;;;1.98;1.00;;;12.20;60.80;;;;;;5074438;28;20112;-77
2023/04/12 09:17:32;;;;;;;3.65;1.15;;;12.10;60.50;;;;;;5074685;28;20107;-77
2023/04/12 09:19:59;;;;;;;;;;;12.10;60.80;;;;;;5074647;28;20472;-76
2023/04/12 09:22:36;;;;;;;3.20;1.50;;;12.20;60.10;;;;;;5075526;28;20329;-76
2023/04/12 09:25:02;;;;;;;1.48;0.93;;;12.20;58.80;;;;;;5074193;28;20127;-76
2023/04/12 09:27:28;;;;;;;5.65;1.17;;;12.10;58.20;;;;;;5073964;28;20528;-76
2023/04/12 09:30:06;;;;;;;4.93;1.60;;;12.20;59.10;;;;;;5074300;28;20021;-77
2023/04/12 09:32:32;;;;;;;6.32;1.90;;;12.10;59.60;;;;;;5074072;28;20388;-76
2023/04/12 09:35:00;;;;;;;1.67;1.20;;;12.00;60.90;;;;;;5073756;28;20476;-76
2023/04/12 09:37:25;;;;;;;5.40;1.45;;;11.90;61.40;;;;;;5073936;28;20437;-76
2023/04/12 09:40:01;;;;;;;3.60;1.23;;;11.90;63.00;;;;;;5073459;28;20028;-75
2023/04/12 09:42:27;;;;;;;2.83;1.40;;;11.80;61.90;;;;;;5073396;28;20063;-76
2023/04/12 09:44:53;;;;;;;5.20;1.52;;;11.70;62.80;;;;;;5073464;28;20036;-76
2023/04/12 09:47:19;;;;;;;4.75;1.83;;;11.80;65.20;;;;;;5073438;28;20111;-77
2023/04/12 09:49:45;;;;;;;4.93;1.50;;;11.70;65.40;;;;;;5072900;28;20178;-77
2023/04/12 09:52:13;;;;;;;8.48;1.65;;;11.80;65.10;;;;;;5073333;28;20489;-77
2023/04/12 09:54:44;;;;;;;3.28;1.58;;;11.60;67.40;;;;;;5073921;28;20486;-77
2023/04/12 09:57:11;;;;;;;3.70;1.55;;;11.80;68.80;;;;;;5073661;28;20033;-76
2023/04/12 09:59:42;;;;;;;2.60;1.33;;;11.70;67.10;;;;;;5073848;28;20451;-77
2023/04/12 10:02:17;;;;;;;6.18;1.65;;;11.80;67.40;;;;;;5056919;28;20128;-77
2023/04/12 10:04:42;;;;;;;3.22;1.35;;;11.90;66.30;;;;;;5072723;28;20033;-77
2023/04/12 10:07:08;;;;;;;8.40;1.70;;;11.80;67.00;;;;;;5073036;28;20362;-76
2023/04/12 10:09:37;;;;;;;4.93;2.00;;;11.70;66.80;;;;;;5073355;28;20025;-77
2023/04/12 10:12:04;;;;;;;9.50;2.00;;;11.80;67.80;;;;;;5072585;28;20037;-77
2023/04/12 10:14:32;;;;;;;4.57;1.77;;;11.90;66.40;;;;;;5073223;28;20016;-77
2023/04/12 10:16:59;;;;;;;9.88;1.83;;;11.90;66.30;;;;;;5073413;28;20066;-76
2023/04/12 10:19:27;;;;;;;2.58;1.20;;;11.80;66.40;;;;;;5073386;28;20107;-78
2023/04/12 10:21:54;;;;;;;3.05;1.35;;;11.90;67.60;;;;;;5073231;28;20024;-77
2023/04/12 10:24:21;;;;;;;3.47;1.60;;;11.90;66.60;;;;;;5073637;28;20039;-77
2023/04/12 10:26:49;;;;;;;3.70;1.30;;;11.80;68.20;;;;;;5073458;28;20089;-76
2023/04/12 10:29:35;;;;;;;2.08;1.20;;;11.60;67.10;;;;;;5073258;28;20020;-76
2023/04/12 10:32:25;;;;;;;4.38;1.10;;;11.40;70.40;;;;;;5073511;28;20119;-77
2023/04/12 10:34:53;;;;;;;4.55;1.40;;;11.40;71.40;;;;;;5072355;28;20577;-77
2023/04/12 10:37:21;;;;;;;3.85;1.17;;;11.40;71.40;;;;;;5072812;28;20423;-77
2023/04/12 10:39:53;;;;;;;3.95;1.23;;;11.40;68.30;;;;;;5072634;28;20499;-76
2023/04/12 10:42:29;;;;;;;3.20;1.15;;;11.40;69.80;;;;;;5072888;28;20028;-75
2023/04/12 10:45:22;;;;;;;3.08;1.25;;;11.40;70.20;;;;;;5074633;28;20036;-77
2023/04/12 10:47:48;;;;;;;2.20;1.10;;;11.30;70.50;;;;;;5081101;28;20048;-77
2023/04/12 10:50:30;;;;;;;2.67;0.90;;;11.30;67.70;;;;;;5083953;28;20020;-77
2023/04/12 10:53:17;;;;;;;2.97;0.93;;;11.20;69.40;;;;;;5088035;28;20024;-77
2023/04/12 10:55:44;;;;;;;2.45;0.60;;;11.20;68.70;;;;;;5093241;28;20020;-77
2023/04/12 10:58:45;;;;;;;2.53;0.73;;;11.20;67.60;;;;;;5092858;28;20074;-77
2023/04/12 11:01:12;;;;;;;1.42;0.60;;;11.30;67.70;;;;;;5003961;28;20063;-77
2023/04/12 11:04:17;;;;;;;1.88;0.70;;;11.40;68.60;;;;;;5065877;28;20030;-78
2023/04/12 11:06:51;;;;;;;1.90;0.80;;;11.50;68.90;;;;;;5077740;28;20383;-74
2023/04/12 11:09:24;;;;;;;1.05;0.60;;;11.60;66.50;;;;;;5090001;28;20146;-77
2023/04/12 11:12:02;;;;;;;2.50;0.70;;;11.70;65.30;;;;;;5092357;28;20024;-77
2023/04/12 11:14:33;;;;;;;4.07;0.60;;;11.80;66.50;;;;;;5092780;28;20040;-78
2023/04/12 11:17:07;;;;;;;2.60;0.70;;;11.90;64.70;;;;;;5092343;28;20069;-76
2023/04/12 11:19:36;;;;;;;2.70;0.55;;;12.20;64.70;;;;;;5091952;28;20015;-76
2023/04/12 11:22:06;;;;;;;0.52;0.47;;;12.40;63.20;;;;;;5091935;28;20023;-77
2023/04/12 11:24:32;;;;;;;0.57;0.32;;;12.70;63.60;;;;;;5092512;28;20085;-78
2023/04/12 11:27:15;;;;;;;0.50;0.40;;;13.00;61.60;;;;;;5079689;28;20089;-77
2023/04/12 11:29:42;;;;;;;0.73;0.60;;;13.20;61.20;;;;;;5079998;28;20020;-77
2023/04/12 11:32:12;;;;;;;2.03;0.55;;;13.40;60.50;;;;;;5063809;28;20066;-77
2023/04/12 11:34:39;;;;;;;1.35;0.60;;;13.50;60.20;;;;;;5076915;28;20047;-77
2023/04/12 11:37:07;;;;;;;2.63;0.57;;;13.60;59.90;;;;;;5081510;28;20050;-77
2023/04/12 11:39:34;;;;;;;2.08;0.70;;;13.60;59.70;;;;;;5081843;28;20476;-77
2023/04/12 11:42:02;;;;;;;1.02;0.63;;;13.30;61.90;;;;;;5081885;28;20029;-77
2023/04/12 11:44:31;;;;;;;0.68;0.40;;;13.40;61.50;;;;;;5088950;28;20430;-76
2023/04/12 11:46:57;;;;;;;1.38;0.70;;;13.40;62.20;;;;;;5091405;28;20032;-76
2023/04/12 11:49:26;;;;;;;0.90;0.43;;;13.20;63.70;;;;;;5074975;28;20032;-78
2023/04/12 11:52:02;;;;;;;1.85;0.40;;;13.10;62.70;;;;;;5091515;28;20024;-78
2023/04/12 11:54:28;;;;;;;;;;;13.20;62.90;;;;;;5096605;28;20380;-78
2023/04/12 11:56:56;;;;;;;0.93;0.60;;;13.20;63.10;;;;;;5092165;28;19922;-76
2023/04/12 11:59:22;;;;;;;0.20;0.20;;;13.20;63.20;;;;;;5092166;28;20034;-79
2023/04/12 12:01:52;;;;;;;1.33;0.50;;;13.20;61.80;;;;;;5088672;28;20391;-76
2023/04/12 12:04:18;;;;;;;2.55;0.63;;;13.30;62.00;;;;;;5068795;28;20074;-78
2023/04/12 12:06:45;;;;;;;0.75;0.40;;;13.60;61.00;;;;;;5070807;28;20068;-78
2023/04/12 12:09:11;;;;;;;0.50;0.47;;;13.90;60.40;;;;;;5072080;28;20035;-84
2023/04/12 12:11:36;;;;;;;1.33;0.50;;;14.10;58.90;;;;;;5071754;28;20024;-78
2023/04/12 12:14:02;;;;;;;1.35;0.47;;;14.20;58.50;;;;;;5071626;28;20035;-79
2023/04/12 12:16:29;;;;;;;0.95;0.40;;;14.00;57.60;;;;;;5071805;28;20538;-78
2023/04/12 12:18:56;;;;;;;1.38;0.57;;;14.10;57.60;;;;;;5071289;28;20024;-85
2023/04/12 12:21:22;;;;;;;1.20;0.40;;;14.20;58.40;;;;;;5055569;28;20028;-82
2023/04/12 12:23:49;;;;;;;1.33;0.43;;;14.00;57.20;;;;;;5071085;28;20023;-79
2023/04/12 12:26:21;;;;;;;2.17;0.57;;;13.70;58.40;;;;;;5070659;28;20028;-80
2023/04/12 12:28:55;;;;;;;0.95;0.40;;;13.50;59.30;;;;;;5071091;28;20058;-78
2023/04/12 12:31:23;;;;;;;2.10;0.57;;;13.40;59.50;;;;;;5070772;28;20053;-78
2023/04/12 12:33:52;;;;;;;0.75;0.35;;;13.70;58.90;;;;;;5071355;28;20068;-76
2023/04/12 12:36:19;;;;;;;2.00;0.63;;;13.70;58.60;;;;;;5070988;28;20052;-76
2023/04/12 12:38:47;;;;;;;4.35;0.73;;;14.00;58.60;;;;;;5072064;28;20071;-77
2023/04/12 12:41:21;;;;;;;2.17;0.40;;;14.20;57.70;;;;;;5071099;28;20449;-77
2023/04/12 12:43:50;;;;;;;0.77;0.45;;;14.30;57.70;;;;;;5075440;28;20032;-76
2023/04/12 12:46:18;;;;;;;5.13;0.70;;;14.50;56.50;;;;;;5081237;28;20024;-80
2023/04/12 12:48:46;;;;;;;2.17;0.50;;;14.70;55.90;;;;;;5085122;28;20036;-77
2023/04/12 12:51:18;;;;;;;3.08;0.63;;;14.80;55.80;;;;;;5084089;28;20021;-82
2023/04/12 12:53:45;;;;;;;1.42;0.57;;;14.80;56.60;;;;;;5082103;28;20036;-78
2023/04/12 12:56:12;;;;;;;0.88;0.50;;;14.40;55.70;;;;;;5081624;28;20388;-77
2023/04/12 12:58:38;;;;;;;3.15;0.50;;;14.20;57.00;;;;;;5081281;28;20024;-77